sensor_id;sensor_type;location;lat;lon;timestamp;P1;durP1;ratioP1;P2;durP2;ratioP2
146;SDS011;45999;48.808;9.182;2022-07-21T00:02:25;15.57;;;14.27;;
146;SDS011;45999;48.808;9.182;2022-07-21T00:04:52;15.13;;;13.73;;
146;SDS011;45999;48.808;9.182;2022-07-21T00:07:18;13.87;;;12.67;;
146;SDS011;45999;48.808;9.182;2022-07-21T00:09:45;12.50;;;11.50;;
146;SDS011;45999;48.808;9.182;2022-07-21T00:12:11;13.57;;;12.43;;
146;SDS011;45999;48.808;9.182;2022-07-21T00:14:37;13.47;;;12.30;;
146;SDS011;45999;48.808;9.182;2022-07-21T00:17:04;13.60;;;12.30;;
146;SDS011;45999;48.808;9.182;2022-07-21T00:19:30;13.87;;;12.77;;
146;SDS011;45999;48.808;9.182;2022-07-21T00:21:57;14.07;;;12.73;;
146;SDS011;45999;48.808;9.182;2022-07-21T00:24:23;14.13;;;12.93;;
146;SDS011;45999;48.808;9.182;2022-07-21T00:26:49;15.30;;;13.90;;
146;SDS011;45999;48.808;9.182;2022-07-21T00:29:16;13.83;;;12.53;;
146;SDS011;45999;48.808;9.182;2022-07-21T00:31:42;14.13;;;12.57;;
146;SDS011;45999;48.808;9.182;2022-07-21T00:34:09;14.47;;;13.00;;
146;SDS011;45999;48.808;9.182;2022-07-21T00:36:35;14.00;;;12.90;;
146;SDS011;45999;48.808;9.182;2022-07-21T00:39:02;14.60;;;13.40;;
146;SDS011;45999;48.808;9.182;2022-07-21T00:41:28;14.10;;;12.90;;
146;SDS011;45999;48.808;9.182;2022-07-21T00:43:55;15.57;;;14.03;;
146;SDS011;45999;48.808;9.182;2022-07-21T00:46:21;15.43;;;13.83;;
146;SDS011;45999;48.808;9.182;2022-07-21T00:48:48;15.00;;;13.43;;
146;SDS011;45999;48.808;9.182;2022-07-21T00:51:14;14.07;;;12.80;;
146;SDS011;45999;48.808;9.182;2022-07-21T00:53:40;14.60;;;13.30;;
146;SDS011;45999;48.808;9.182;2022-07-21T00:56:07;15.50;;;13.90;;
146;SDS011;45999;48.808;9.182;2022-07-21T00:58:34;15.60;;;14.20;;
146;SDS011;45999;48.808;9.182;2022-07-21T01:01:00;15.33;;;13.93;;
146;SDS011;45999;48.808;9.182;2022-07-21T01:03:27;14.53;;;13.20;;
146;SDS011;45999;48.808;9.182;2022-07-21T01:05:53;15.63;;;14.33;;
146;SDS011;45999;48.808;9.182;2022-07-21T01:08:20;15.57;;;14.07;;
146;SDS011;45999;48.808;9.182;2022-07-21T01:10:46;14.47;;;13.20;;
146;SDS011;45999;48.808;9.182;2022-07-21T01:13:12;15.30;;;14.00;;
146;SDS011;45999;48.808;9.182;2022-07-21T01:15:39;15.57;;;14.27;;
146;SDS011;45999;48.808;9.182;2022-07-21T01:18:05;16.00;;;14.60;;
146;SDS011;45999;48.808;9.182;2022-07-21T01:20:34;16.20;;;14.80;;
146;SDS011;45999;48.808;9.182;2022-07-21T01:23:01;16.53;;;14.90;;
146;SDS011;45999;48.808;9.182;2022-07-21T01:25:28;15.27;;;13.93;;
146;SDS011;45999;48.808;9.182;2022-07-21T01:27:55;16.27;;;14.73;;
146;SDS011;45999;48.808;9.182;2022-07-21T01:30:21;14.37;;;12.97;;
146;SDS011;45999;48.808;9.182;2022-07-21T01:32:48;15.13;;;13.70;;
146;SDS011;45999;48.808;9.182;2022-07-21T01:35:15;15.90;;;14.33;;
146;SDS011;45999;48.808;9.182;2022-07-21T01:37:43;14.90;;;13.60;;
146;SDS011;45999;48.808;9.182;2022-07-21T01:40:11;16.13;;;14.53;;
146;SDS011;45999;48.808;9.182;2022-07-21T01:42:56;15.30;;;14.00;;
146;SDS011;45999;48.808;9.182;2022-07-21T01:45:22;15.20;;;13.70;;
146;SDS011;45999;48.808;9.182;2022-07-21T01:47:49;15.80;;;14.10;;
146;SDS011;45999;48.808;9.182;2022-07-21T01:50:16;15.40;;;14.10;;
146;SDS011;45999;48.808;9.182;2022-07-21T01:52:46;14.53;;;13.33;;
146;SDS011;45999;48.808;9.182;2022-07-21T01:55:12;15.03;;;13.60;;
146;SDS011;45999;48.808;9.182;2022-07-21T01:57:39;15.57;;;14.03;;
146;SDS011;45999;48.808;9.182;2022-07-21T02:00:05;14.83;;;13.30;;
146;SDS011;45999;48.808;9.182;2022-07-21T02:02:32;13.43;;;12.23;;
146;SDS011;45999;48.808;9.182;2022-07-21T02:04:59;15.17;;;12.20;;
146;SDS011;45999;48.808;9.182;2022-07-21T02:07:25;14.83;;;13.27;;
146;SDS011;45999;48.808;9.182;2022-07-21T02:09:51;15.03;;;13.40;;
146;SDS011;45999;48.808;9.182;2022-07-21T02:12:18;13.90;;;12.60;;
146;SDS011;45999;48.808;9.182;2022-07-21T02:14:44;14.50;;;13.10;;
146;SDS011;45999;48.808;9.182;2022-07-21T02:17:10;14.40;;;13.10;;
146;SDS011;45999;48.808;9.182;2022-07-21T02:19:37;14.70;;;13.17;;
146;SDS011;45999;48.808;9.182;2022-07-21T02:22:03;14.17;;;12.97;;
146;SDS011;45999;48.808;9.182;2022-07-21T02:24:30;17.23;;;14.37;;
146;SDS011;45999;48.808;9.182;2022-07-21T02:26:56;14.60;;;13.20;;
146;SDS011;45999;48.808;9.182;2022-07-21T02:29:23;14.57;;;13.30;;
146;SDS011;45999;48.808;9.182;2022-07-21T02:31:50;14.37;;;13.07;;
146;SDS011;45999;48.808;9.182;2022-07-21T02:34:16;16.23;;;14.57;;
146;SDS011;45999;48.808;9.182;2022-07-21T02:36:42;15.33;;;14.03;;
146;SDS011;45999;48.808;9.182;2022-07-21T02:39:09;13.90;;;12.67;;
146;SDS011;45999;48.808;9.182;2022-07-21T02:41:35;14.03;;;12.60;;
146;SDS011;45999;48.808;9.182;2022-07-21T02:44:02;15.53;;;14.00;;
146;SDS011;45999;48.808;9.182;2022-07-21T02:46:28;14.63;;;13.27;;
146;SDS011;45999;48.808;9.182;2022-07-21T02:48:54;14.27;;;12.87;;
146;SDS011;45999;48.808;9.182;2022-07-21T02:51:21;14.60;;;13.10;;
146;SDS011;45999;48.808;9.182;2022-07-21T02:53:47;14.37;;;13.10;;
146;SDS011;45999;48.808;9.182;2022-07-21T02:56:14;16.13;;;14.73;;
146;SDS011;45999;48.808;9.182;2022-07-21T02:58:41;17.03;;;15.30;;
146;SDS011;45999;48.808;9.182;2022-07-21T03:01:07;13.93;;;12.70;;
146;SDS011;45999;48.808;9.182;2022-07-21T03:03:34;12.07;;;10.97;;
146;SDS011;45999;48.808;9.182;2022-07-21T03:06:02;13.13;;;12.10;;
146;SDS011;45999;48.808;9.182;2022-07-21T03:08:30;13.93;;;12.73;;
146;SDS011;45999;48.808;9.182;2022-07-21T03:10:57;13.63;;;12.40;;
146;SDS011;45999;48.808;9.182;2022-07-21T03:13:23;12.93;;;11.93;;
146;SDS011;45999;48.808;9.182;2022-07-21T03:15:50;12.03;;;10.90;;
146;SDS011;45999;48.808;9.182;2022-07-21T03:18:16;13.47;;;12.27;;
146;SDS011;45999;48.808;9.182;2022-07-21T03:20:43;13.53;;;12.33;;
146;SDS011;45999;48.808;9.182;2022-07-21T03:23:10;13.47;;;12.30;;
146;SDS011;45999;48.808;9.182;2022-07-21T03:25:37;13.93;;;12.57;;
146;SDS011;45999;48.808;9.182;2022-07-21T03:28:04;12.93;;;11.73;;
146;SDS011;45999;48.808;9.182;2022-07-21T03:30:31;12.47;;;11.37;;
146;SDS011;45999;48.808;9.182;2022-07-21T03:32:58;12.70;;;11.57;;
146;SDS011;45999;48.808;9.182;2022-07-21T03:35:24;12.37;;;11.37;;
146;SDS011;45999;48.808;9.182;2022-07-21T03:37:51;12.43;;;10.97;;
146;SDS011;45999;48.808;9.182;2022-07-21T03:40:20;9.83;;;9.00;;
146;SDS011;45999;48.808;9.182;2022-07-21T03:42:50;12.00;;;10.90;;
146;SDS011;45999;48.808;9.182;2022-07-21T03:45:18;13.03;;;10.70;;
146;SDS011;45999;48.808;9.182;2022-07-21T03:47:45;10.70;;;9.90;;
146;SDS011;45999;48.808;9.182;2022-07-21T03:50:12;11.13;;;10.07;;
146;SDS011;45999;48.808;9.182;2022-07-21T03:52:39;11.17;;;10.17;;
146;SDS011;45999;48.808;9.182;2022-07-21T03:55:06;11.63;;;10.57;;
146;SDS011;45999;48.808;9.182;2022-07-21T03:57:40;11.30;;;10.40;;
146;SDS011;45999;48.808;9.182;2022-07-21T04:00:11;11.50;;;10.40;;
146;SDS011;45999;48.808;9.182;2022-07-21T04:02:43;12.20;;;11.00;;
146;SDS011;45999;48.808;9.182;2022-07-21T04:05:10;12.13;;;10.93;;
146;SDS011;45999;48.808;9.182;2022-07-21T04:07:38;12.10;;;10.90;;
146;SDS011;45999;48.808;9.182;2022-07-21T04:10:07;12.93;;;11.63;;
146;SDS011;45999;48.808;9.182;2022-07-21T04:12:34;13.10;;;11.83;;
146;SDS011;45999;48.808;9.182;2022-07-21T04:15:01;12.10;;;10.87;;
146;SDS011;45999;48.808;9.182;2022-07-21T04:17:27;11.93;;;10.93;;
146;SDS011;45999;48.808;9.182;2022-07-21T04:19:54;11.50;;;10.40;;
146;SDS011;45999;48.808;9.182;2022-07-21T04:22:20;12.07;;;10.93;;
146;SDS011;45999;48.808;9.182;2022-07-21T04:24:46;12.13;;;11.13;;
146;SDS011;45999;48.808;9.182;2022-07-21T04:27:13;12.30;;;11.30;;
146;SDS011;45999;48.808;9.182;2022-07-21T04:29:39;12.10;;;11.10;;
146;SDS011;45999;48.808;9.182;2022-07-21T04:32:06;12.30;;;11.13;;
146;SDS011;45999;48.808;9.182;2022-07-21T04:34:32;11.67;;;10.67;;
146;SDS011;45999;48.808;9.182;2022-07-21T04:36:58;12.57;;;11.30;;
146;SDS011;45999;48.808;9.182;2022-07-21T04:39:25;12.10;;;11.00;;
146;SDS011;45999;48.808;9.182;2022-07-21T04:41:52;11.83;;;10.83;;
146;SDS011;45999;48.808;9.182;2022-07-21T04:44:19;12.30;;;10.87;;
146;SDS011;45999;48.808;9.182;2022-07-21T04:46:45;12.20;;;11.07;;
146;SDS011;45999;48.808;9.182;2022-07-21T04:49:12;12.77;;;11.67;;
146;SDS011;45999;48.808;9.182;2022-07-21T04:51:38;13.17;;;11.77;;
146;SDS011;45999;48.808;9.182;2022-07-21T04:54:05;13.20;;;11.83;;
146;SDS011;45999;48.808;9.182;2022-07-21T04:56:31;13.33;;;12.03;;
146;SDS011;45999;48.808;9.182;2022-07-21T04:58:59;11.73;;;10.83;;
146;SDS011;45999;48.808;9.182;2022-07-21T05:01:26;13.10;;;11.87;;
146;SDS011;45999;48.808;9.182;2022-07-21T05:03:53;12.57;;;11.57;;
146;SDS011;45999;48.808;9.182;2022-07-21T05:06:19;11.57;;;10.53;;
146;SDS011;45999;48.808;9.182;2022-07-21T05:08:45;13.17;;;11.97;;
146;SDS011;45999;48.808;9.182;2022-07-21T05:11:12;10.77;;;9.87;;
146;SDS011;45999;48.808;9.182;2022-07-21T05:13:39;11.93;;;10.73;;
146;SDS011;45999;48.808;9.182;2022-07-21T05:16:05;11.70;;;10.50;;
146;SDS011;45999;48.808;9.182;2022-07-21T05:18:32;11.90;;;10.80;;
146;SDS011;45999;48.808;9.182;2022-07-21T05:20:58;11.40;;;10.20;;
146;SDS011;45999;48.808;9.182;2022-07-21T05:23:25;11.63;;;10.57;;
146;SDS011;45999;48.808;9.182;2022-07-21T05:25:51;11.67;;;10.47;;
146;SDS011;45999;48.808;9.182;2022-07-21T05:28:17;10.80;;;9.80;;
146;SDS011;45999;48.808;9.182;2022-07-21T05:30:44;12.20;;;10.83;;
146;SDS011;45999;48.808;9.182;2022-07-21T05:33:10;12.27;;;11.27;;
146;SDS011;45999;48.808;9.182;2022-07-21T05:35:36;11.90;;;10.83;;
146;SDS011;45999;48.808;9.182;2022-07-21T05:38:03;10.80;;;9.90;;
146;SDS011;45999;48.808;9.182;2022-07-21T05:40:30;12.60;;;11.60;;
146;SDS011;45999;48.808;9.182;2022-07-21T05:42:56;12.77;;;11.37;;
146;SDS011;45999;48.808;9.182;2022-07-21T05:45:23;13.20;;;12.03;;
146;SDS011;45999;48.808;9.182;2022-07-21T05:47:49;14.07;;;12.70;;
146;SDS011;45999;48.808;9.182;2022-07-21T05:50:16;13.00;;;12.03;;
146;SDS011;45999;48.808;9.182;2022-07-21T05:52:42;13.33;;;12.10;;
146;SDS011;45999;48.808;9.182;2022-07-21T05:55:09;13.50;;;12.30;;
146;SDS011;45999;48.808;9.182;2022-07-21T05:57:36;13.93;;;12.50;;
146;SDS011;45999;48.808;9.182;2022-07-21T06:00:04;15.20;;;13.60;;
146;SDS011;45999;48.808;9.182;2022-07-21T06:02:31;13.73;;;12.53;;
146;SDS011;45999;48.808;9.182;2022-07-21T06:04:57;13.23;;;12.10;;
146;SDS011;45999;48.808;9.182;2022-07-21T06:07:25;14.10;;;12.80;;
146;SDS011;45999;48.808;9.182;2022-07-21T06:09:51;13.83;;;12.43;;
146;SDS011;45999;48.808;9.182;2022-07-21T06:12:19;13.30;;;11.97;;
146;SDS011;45999;48.808;9.182;2022-07-21T06:14:45;13.13;;;11.93;;
146;SDS011;45999;48.808;9.182;2022-07-21T06:17:12;13.20;;;12.10;;
146;SDS011;45999;48.808;9.182;2022-07-21T06:19:38;13.13;;;11.93;;
146;SDS011;45999;48.808;9.182;2022-07-21T06:22:04;12.47;;;11.33;;
146;SDS011;45999;48.808;9.182;2022-07-21T06:24:31;12.37;;;11.10;;
146;SDS011;45999;48.808;9.182;2022-07-21T06:26:57;11.90;;;10.77;;
146;SDS011;45999;48.808;9.182;2022-07-21T06:29:24;12.23;;;10.10;;
146;SDS011;45999;48.808;9.182;2022-07-21T06:31:51;11.90;;;10.70;;
146;SDS011;45999;48.808;9.182;2022-07-21T06:34:17;10.50;;;9.50;;
146;SDS011;45999;48.808;9.182;2022-07-21T06:36:43;11.90;;;10.17;;
146;SDS011;45999;48.808;9.182;2022-07-21T06:39:10;12.73;;;11.53;;
146;SDS011;45999;48.808;9.182;2022-07-21T06:41:37;10.97;;;9.87;;
146;SDS011;45999;48.808;9.182;2022-07-21T06:44:04;11.37;;;10.20;;
146;SDS011;45999;48.808;9.182;2022-07-21T06:46:32;10.10;;;9.17;;
146;SDS011;45999;48.808;9.182;2022-07-21T06:48:59;10.97;;;9.87;;
146;SDS011;45999;48.808;9.182;2022-07-21T06:51:26;10.87;;;9.97;;
146;SDS011;45999;48.808;9.182;2022-07-21T06:53:52;11.37;;;10.27;;
146;SDS011;45999;48.808;9.182;2022-07-21T06:56:19;12.33;;;10.63;;
146;SDS011;45999;48.808;9.182;2022-07-21T06:58:46;11.00;;;9.70;;
146;SDS011;45999;48.808;9.182;2022-07-21T07:01:13;9.33;;;8.47;;
146;SDS011;45999;48.808;9.182;2022-07-21T07:03:41;8.77;;;8.03;;
146;SDS011;45999;48.808;9.182;2022-07-21T07:06:08;9.57;;;8.67;;
146;SDS011;45999;48.808;9.182;2022-07-21T07:08:35;9.27;;;8.37;;
146;SDS011;45999;48.808;9.182;2022-07-21T07:11:03;9.27;;;8.30;;
146;SDS011;45999;48.808;9.182;2022-07-21T07:13:29;8.83;;;8.13;;
146;SDS011;45999;48.808;9.182;2022-07-21T07:15:56;9.07;;;8.27;;
146;SDS011;45999;48.808;9.182;2022-07-21T07:18:22;9.87;;;8.20;;
146;SDS011;45999;48.808;9.182;2022-07-21T07:20:50;9.93;;;8.27;;
146;SDS011;45999;48.808;9.182;2022-07-21T07:23:17;10.00;;;9.10;;
146;SDS011;45999;48.808;9.182;2022-07-21T07:25:43;9.40;;;8.60;;
146;SDS011;45999;48.808;9.182;2022-07-21T07:28:09;9.03;;;8.23;;
146;SDS011;45999;48.808;9.182;2022-07-21T07:30:36;9.07;;;8.20;;
146;SDS011;45999;48.808;9.182;2022-07-21T07:33:04;8.57;;;7.77;;
146;SDS011;45999;48.808;9.182;2022-07-21T07:35:30;8.57;;;7.77;;
146;SDS011;45999;48.808;9.182;2022-07-21T07:37:56;9.03;;;8.20;;
146;SDS011;45999;48.808;9.182;2022-07-21T07:40:23;9.00;;;8.20;;
146;SDS011;45999;48.808;9.182;2022-07-21T07:42:50;8.13;;;7.43;;
146;SDS011;45999;48.808;9.182;2022-07-21T07:45:17;7.30;;;6.60;;
146;SDS011;45999;48.808;9.182;2022-07-21T07:47:43;7.80;;;6.90;;
146;SDS011;45999;48.808;9.182;2022-07-21T07:50:11;7.80;;;6.70;;
146;SDS011;45999;48.808;9.182;2022-07-21T07:52:39;7.17;;;6.57;;
146;SDS011;45999;48.808;9.182;2022-07-21T07:55:07;7.67;;;6.97;;
146;SDS011;45999;48.808;9.182;2022-07-21T07:57:35;7.60;;;6.97;;
146;SDS011;45999;48.808;9.182;2022-07-21T08:00:03;7.50;;;6.80;;
146;SDS011;45999;48.808;9.182;2022-07-21T08:02:32;7.93;;;6.80;;
146;SDS011;45999;48.808;9.182;2022-07-21T08:04:58;6.93;;;6.33;;
146;SDS011;45999;48.808;9.182;2022-07-21T08:07:24;8.02;;;6.55;;
146;SDS011;45999;48.808;9.182;2022-07-21T08:09:51;7.50;;;6.60;;
146;SDS011;45999;48.808;9.182;2022-07-21T08:12:17;6.00;;;5.50;;
146;SDS011;45999;48.808;9.182;2022-07-21T08:14:44;5.95;;;5.35;;
146;SDS011;45999;48.808;9.182;2022-07-21T08:17:10;6.43;;;5.82;;
146;SDS011;45999;48.808;9.182;2022-07-21T08:19:36;6.53;;;5.93;;
146;SDS011;45999;48.808;9.182;2022-07-21T08:22:03;6.85;;;6.25;;
146;SDS011;45999;48.808;9.182;2022-07-21T08:24:29;6.60;;;5.80;;
146;SDS011;45999;48.808;9.182;2022-07-21T08:26:56;6.65;;;5.57;;
146;SDS011;45999;48.808;9.182;2022-07-21T08:29:22;6.15;;;5.55;;
146;SDS011;45999;48.808;9.182;2022-07-21T08:31:48;5.40;;;5.00;;
146;SDS011;45999;48.808;9.182;2022-07-21T08:34:15;6.53;;;5.93;;
146;SDS011;45999;48.808;9.182;2022-07-21T08:36:41;6.45;;;5.28;;
146;SDS011;45999;48.808;9.182;2022-07-21T08:39:07;6.53;;;5.93;;
146;SDS011;45999;48.808;9.182;2022-07-21T08:41:35;6.78;;;6.15;;
146;SDS011;45999;48.808;9.182;2022-07-21T08:44:03;6.68;;;5.90;;
146;SDS011;45999;48.808;9.182;2022-07-21T08:46:29;6.57;;;6.07;;
146;SDS011;45999;48.808;9.182;2022-07-21T08:48:59;6.20;;;5.60;;
146;SDS011;45999;48.808;9.182;2022-07-21T08:51:31;5.95;;;5.45;;
146;SDS011;45999;48.808;9.182;2022-07-21T08:54:00;6.18;;;5.72;;
146;SDS011;45999;48.808;9.182;2022-07-21T08:56:27;5.95;;;5.30;;
146;SDS011;45999;48.808;9.182;2022-07-21T08:58:54;6.50;;;6.00;;
146;SDS011;45999;48.808;9.182;2022-07-21T09:01:20;6.75;;;6.03;;
146;SDS011;45999;48.808;9.182;2022-07-21T09:03:49;6.50;;;5.75;;
146;SDS011;45999;48.808;9.182;2022-07-21T09:06:16;6.30;;;5.65;;
146;SDS011;45999;48.808;9.182;2022-07-21T09:08:47;6.20;;;5.70;;
146;SDS011;45999;48.808;9.182;2022-07-21T09:13:48;6.53;;;5.68;;
146;SDS011;45999;48.808;9.182;2022-07-21T09:16:35;6.45;;;5.78;;
146;SDS011;45999;48.808;9.182;2022-07-21T09:19:03;7.35;;;5.82;;
146;SDS011;45999;48.808;9.182;2022-07-21T09:21:31;6.15;;;5.65;;
146;SDS011;45999;48.808;9.182;2022-07-21T09:24:16;6.75;;;6.07;;
146;SDS011;45999;48.808;9.182;2022-07-21T09:29:36;6.40;;;4.80;;
146;SDS011;45999;48.808;9.182;2022-07-21T09:34:40;5.30;;;4.80;;
146;SDS011;45999;48.808;9.182;2022-07-21T09:37:06;5.03;;;4.60;;
146;SDS011;45999;48.808;9.182;2022-07-21T09:39:43;4.93;;;4.50;;
146;SDS011;45999;48.808;9.182;2022-07-21T09:42:23;4.82;;;4.43;;
146;SDS011;45999;48.808;9.182;2022-07-21T09:44:58;5.32;;;4.35;;
146;SDS011;45999;48.808;9.182;2022-07-21T09:47:28;4.07;;;3.75;;
146;SDS011;45999;48.808;9.182;2022-07-21T09:49:56;4.53;;;4.13;;
146;SDS011;45999;48.808;9.182;2022-07-21T09:52:32;4.68;;;4.28;;
146;SDS011;45999;48.808;9.182;2022-07-21T09:55:02;4.97;;;4.00;;
146;SDS011;45999;48.808;9.182;2022-07-21T09:57:31;5.40;;;4.45;;
146;SDS011;45999;48.808;9.182;2022-07-21T09:59:58;4.88;;;3.95;;
146;SDS011;45999;48.808;9.182;2022-07-21T10:02:27;4.72;;;4.30;;
146;SDS011;45999;48.808;9.182;2022-07-21T10:07:22;4.88;;;4.25;;
146;SDS011;45999;48.808;9.182;2022-07-21T10:09:49;4.85;;;4.45;;
146;SDS011;45999;48.808;9.182;2022-07-21T10:12:16;5.13;;;4.60;;
146;SDS011;45999;48.808;9.182;2022-07-21T10:14:43;4.93;;;4.45;;
146;SDS011;45999;48.808;9.182;2022-07-21T10:17:11;5.43;;;4.00;;
146;SDS011;45999;48.808;9.182;2022-07-21T10:20:00;4.45;;;4.05;;
146;SDS011;45999;48.808;9.182;2022-07-21T10:25:21;4.88;;;4.47;;
146;SDS011;45999;48.808;9.182;2022-07-21T10:30:37;4.75;;;4.35;;
146;SDS011;45999;48.808;9.182;2022-07-21T10:33:04;5.30;;;4.60;;
146;SDS011;45999;48.808;9.182;2022-07-21T10:35:31;4.75;;;4.35;;
146;SDS011;45999;48.808;9.182;2022-07-21T10:37:58;4.70;;;4.30;;
146;SDS011;45999;48.808;9.182;2022-07-21T10:45:34;5.03;;;4.53;;
146;SDS011;45999;48.808;9.182;2022-07-21T10:48:02;4.47;;;4.07;;
146;SDS011;45999;48.808;9.182;2022-07-21T10:50:30;5.45;;;4.15;;
146;SDS011;45999;48.808;9.182;2022-07-21T10:52:58;4.32;;;3.92;;
146;SDS011;45999;48.808;9.182;2022-07-21T10:55:27;4.38;;;3.70;;
146;SDS011;45999;48.808;9.182;2022-07-21T11:00:34;4.78;;;3.95;;
146;SDS011;45999;48.808;9.182;2022-07-21T11:03:03;5.07;;;4.20;;
146;SDS011;45999;48.808;9.182;2022-07-21T11:05:38;5.28;;;3.95;;
146;SDS011;45999;48.808;9.182;2022-07-21T11:08:47;4.30;;;3.90;;
146;SDS011;45999;48.808;9.182;2022-07-21T11:11:21;4.55;;;4.00;;
146;SDS011;45999;48.808;9.182;2022-07-21T11:14:00;5.20;;;3.80;;
146;SDS011;45999;48.808;9.182;2022-07-21T11:19:04;3.78;;;3.47;;
146;SDS011;45999;48.808;9.182;2022-07-21T11:21:31;9.60;;;3.80;;
146;SDS011;45999;48.808;9.182;2022-07-21T11:23:57;3.90;;;3.40;;
146;SDS011;45999;48.808;9.182;2022-07-21T11:26:24;4.47;;;3.30;;
146;SDS011;45999;48.808;9.182;2022-07-21T11:29:05;3.67;;;3.38;;
146;SDS011;45999;48.808;9.182;2022-07-21T11:31:32;4.32;;;3.55;;
146;SDS011;45999;48.808;9.182;2022-07-21T11:34:11;3.53;;;2.95;;
146;SDS011;45999;48.808;9.182;2022-07-21T11:36:39;3.78;;;3.47;;
146;SDS011;45999;48.808;9.182;2022-07-21T11:39:06;4.45;;;3.28;;
146;SDS011;45999;48.808;9.182;2022-07-21T11:41:35;3.58;;;3.28;;
146;SDS011;45999;48.808;9.182;2022-07-21T11:44:03;4.13;;;3.55;;
146;SDS011;45999;48.808;9.182;2022-07-21T11:49:14;5.20;;;3.42;;
146;SDS011;45999;48.808;9.182;2022-07-21T11:52:24;4.32;;;3.92;;
146;SDS011;45999;48.808;9.182;2022-07-21T11:56:58;3.78;;;3.47;;
146;SDS011;45999;48.808;9.182;2022-07-21T11:59:26;4.63;;;3.47;;
146;SDS011;45999;48.808;9.182;2022-07-21T12:04:27;4.30;;;3.60;;
146;SDS011;45999;48.808;9.182;2022-07-21T12:06:59;4.47;;;4.10;;
146;SDS011;45999;48.808;9.182;2022-07-21T12:09:26;3.95;;;3.42;;
146;SDS011;45999;48.808;9.182;2022-07-21T12:11:53;3.50;;;3.20;;
146;SDS011;45999;48.808;9.182;2022-07-21T12:14:20;3.95;;;3.55;;
146;SDS011;45999;48.808;9.182;2022-07-21T12:17:04;4.10;;;3.72;;
146;SDS011;45999;48.808;9.182;2022-07-21T12:19:30;4.55;;;4.15;;
146;SDS011;45999;48.808;9.182;2022-07-21T12:21:56;5.00;;;4.50;;
146;SDS011;45999;48.808;9.182;2022-07-21T12:24:23;4.63;;;4.30;;
146;SDS011;45999;48.808;9.182;2022-07-21T12:27:17;5.95;;;5.20;;
146;SDS011;45999;48.808;9.182;2022-07-21T12:29:44;5.47;;;4.97;;
146;SDS011;45999;48.808;9.182;2022-07-21T12:32:11;4.97;;;4.28;;
146;SDS011;45999;48.808;9.182;2022-07-21T12:34:50;5.32;;;4.35;;
146;SDS011;45999;48.808;9.182;2022-07-21T12:37:19;4.70;;;4.30;;
146;SDS011;45999;48.808;9.182;2022-07-21T12:40:01;5.20;;;4.72;;
146;SDS011;45999;48.808;9.182;2022-07-21T12:44:58;6.50;;;4.95;;
146;SDS011;45999;48.808;9.182;2022-07-21T12:47:25;7.00;;;5.28;;
146;SDS011;45999;48.808;9.182;2022-07-21T12:52:28;5.60;;;5.10;;
146;SDS011;45999;48.808;9.182;2022-07-21T12:54:57;5.60;;;4.97;;
146;SDS011;45999;48.808;9.182;2022-07-21T12:57:25;7.25;;;4.95;;
146;SDS011;45999;48.808;9.182;2022-07-21T12:59:54;6.78;;;4.53;;
146;SDS011;45999;48.808;9.182;2022-07-21T13:02:21;8.18;;;4.80;;
146;SDS011;45999;48.808;9.182;2022-07-21T13:04:47;5.38;;;4.88;;
146;SDS011;45999;48.808;9.182;2022-07-21T13:07:14;5.63;;;4.88;;
146;SDS011;45999;48.808;9.182;2022-07-21T13:09:41;5.60;;;5.10;;
146;SDS011;45999;48.808;9.182;2022-07-21T13:12:07;5.28;;;4.78;;
146;SDS011;45999;48.808;9.182;2022-07-21T13:14:34;5.80;;;5.22;;
146;SDS011;45999;48.808;9.182;2022-07-21T13:17:00;6.20;;;5.00;;
146;SDS011;45999;48.808;9.182;2022-07-21T13:19:27;4.97;;;4.55;;
146;SDS011;45999;48.808;9.182;2022-07-21T13:21:53;5.20;;;4.70;;
146;SDS011;45999;48.808;9.182;2022-07-21T13:24:20;8.18;;;5.05;;
146;SDS011;45999;48.808;9.182;2022-07-21T13:26:46;5.40;;;4.90;;
146;SDS011;45999;48.808;9.182;2022-07-21T13:29:12;5.20;;;4.80;;
146;SDS011;45999;48.808;9.182;2022-07-21T13:31:39;5.70;;;5.20;;
146;SDS011;45999;48.808;9.182;2022-07-21T13:34:06;6.15;;;5.30;;
146;SDS011;45999;48.808;9.182;2022-07-21T13:36:34;5.13;;;4.65;;
146;SDS011;45999;48.808;9.182;2022-07-21T13:39:01;5.15;;;4.65;;
146;SDS011;45999;48.808;9.182;2022-07-21T13:41:29;5.15;;;4.75;;
146;SDS011;45999;48.808;9.182;2022-07-21T13:43:56;5.30;;;4.80;;
146;SDS011;45999;48.808;9.182;2022-07-21T13:46:23;4.68;;;4.28;;
146;SDS011;45999;48.808;9.182;2022-07-21T13:48:50;4.97;;;4.43;;
146;SDS011;45999;48.808;9.182;2022-07-21T13:51:18;4.85;;;4.40;;
146;SDS011;45999;48.808;9.182;2022-07-21T13:53:45;5.40;;;4.90;;
146;SDS011;45999;48.808;9.182;2022-07-21T13:56:14;5.95;;;4.90;;
146;SDS011;45999;48.808;9.182;2022-07-21T13:58:42;5.40;;;4.50;;
146;SDS011;45999;48.808;9.182;2022-07-21T14:01:09;5.35;;;4.68;;
146;SDS011;45999;48.808;9.182;2022-07-21T14:03:37;4.80;;;4.28;;
146;SDS011;45999;48.808;9.182;2022-07-21T14:06:04;4.85;;;4.30;;
146;SDS011;45999;48.808;9.182;2022-07-21T14:08:30;4.55;;;4.07;;
146;SDS011;45999;48.808;9.182;2022-07-21T14:10:57;4.88;;;4.38;;
146;SDS011;45999;48.808;9.182;2022-07-21T14:13:23;4.72;;;3.90;;
146;SDS011;45999;48.808;9.182;2022-07-21T14:15:50;4.57;;;4.28;;
146;SDS011;45999;48.808;9.182;2022-07-21T14:18:16;5.72;;;4.60;;
146;SDS011;45999;48.808;9.182;2022-07-21T14:20:43;4.72;;;4.32;;
146;SDS011;45999;48.808;9.182;2022-07-21T14:23:09;4.68;;;4.10;;
146;SDS011;45999;48.808;9.182;2022-07-21T14:25:35;5.85;;;4.20;;
146;SDS011;45999;48.808;9.182;2022-07-21T14:28:02;3.78;;;3.47;;
146;SDS011;45999;48.808;9.182;2022-07-21T14:30:28;7.10;;;4.03;;
146;SDS011;45999;48.808;9.182;2022-07-21T14:32:55;4.18;;;3.78;;
146;SDS011;45999;48.808;9.182;2022-07-21T14:35:22;4.40;;;4.00;;
146;SDS011;45999;48.808;9.182;2022-07-21T14:37:51;4.55;;;4.20;;
146;SDS011;45999;48.808;9.182;2022-07-21T14:40:17;4.20;;;3.80;;
146;SDS011;45999;48.808;9.182;2022-07-21T14:42:44;4.40;;;3.97;;
146;SDS011;45999;48.808;9.182;2022-07-21T14:45:12;4.65;;;4.15;;
146;SDS011;45999;48.808;9.182;2022-07-21T14:47:41;5.43;;;4.15;;
146;SDS011;45999;48.808;9.182;2022-07-21T14:50:08;4.32;;;3.88;;
146;SDS011;45999;48.808;9.182;2022-07-21T14:52:35;5.43;;;4.00;;
146;SDS011;45999;48.808;9.182;2022-07-21T14:55:01;4.38;;;3.45;;
146;SDS011;45999;48.808;9.182;2022-07-21T14:57:28;4.63;;;4.15;;
146;SDS011;45999;48.808;9.182;2022-07-21T14:59:55;3.83;;;3.53;;
146;SDS011;45999;48.808;9.182;2022-07-21T15:02:22;5.22;;;3.85;;
146;SDS011;45999;48.808;9.182;2022-07-21T15:04:49;4.22;;;3.92;;
146;SDS011;45999;48.808;9.182;2022-07-21T15:07:15;3.60;;;3.40;;
146;SDS011;45999;48.808;9.182;2022-07-21T15:09:42;3.42;;;3.22;;
146;SDS011;45999;48.808;9.182;2022-07-21T15:12:09;4.78;;;3.58;;
146;SDS011;45999;48.808;9.182;2022-07-21T15:14:36;4.63;;;4.13;;
146;SDS011;45999;48.808;9.182;2022-07-21T15:17:03;4.05;;;3.70;;
146;SDS011;45999;48.808;9.182;2022-07-21T15:19:30;3.95;;;3.63;;
146;SDS011;45999;48.808;9.182;2022-07-21T15:21:57;3.83;;;3.38;;
146;SDS011;45999;48.808;9.182;2022-07-21T15:24:23;4.15;;;3.85;;
146;SDS011;45999;48.808;9.182;2022-07-21T15:26:50;3.80;;;3.40;;
146;SDS011;45999;48.808;9.182;2022-07-21T15:29:17;3.80;;;3.47;;
146;SDS011;45999;48.808;9.182;2022-07-21T15:31:44;3.50;;;3.20;;
146;SDS011;45999;48.808;9.182;2022-07-21T15:34:10;3.72;;;3.42;;
146;SDS011;45999;48.808;9.182;2022-07-21T15:36:37;4.68;;;3.60;;
146;SDS011;45999;48.808;9.182;2022-07-21T15:39:05;4.25;;;3.30;;
146;SDS011;45999;48.808;9.182;2022-07-21T15:41:34;3.55;;;3.20;;
146;SDS011;45999;48.808;9.182;2022-07-21T15:44:03;3.88;;;3.45;;
146;SDS011;45999;48.808;9.182;2022-07-21T15:46:30;3.55;;;3.25;;